Carolina, PR (00988)

10:26 PM AST on December 18, 2014 (GMT -0400)
Manejo de Emergencias Carolina | Change Station
CLOSE
Current Station
Personal Weather Station
Location: Carolina, PR
Elevation: 40 ft
Nearby Weather Stations

Elev 40 ft 18.38 °N, 65.97 °W | Updated 8 minutes ago

Scattered Clouds
Scattered Clouds
71.7 °F
Feels Like 71.7 °F
N
0.0
Wind Variable Wind from WSW
Gusts 3.0 mph

Today
High -- | Low -- °F
--% Chance of Precip.
Yesterday
High -- | Low -- °F
Precip. -- in
6:49 AM 5:51 PM
Waning Crescent, 11% visible
Pressure 30.01 in
Visibility 10.0 miles
Clouds Few 2600 ft
Scattered Clouds 3100 ft
Scattered Clouds 8500 ft
Dew Point 69 °F
Humidity 90%
Rainfall -999.00 in
Snow Depth Not available.
UV 0 out of 12
Pollen Not available.
Air Quality Not available.
Flu Activity Not available.
METAR TJSJ 190156Z 00000KT 10SM FEW026 SCT031 SCT085 24/22 A3001 RMK AO2 RAB11E24 SLP160 VCSH W P0003 T02440217

More Conditions Fewer Conditions

Pressure 30.01 in
Visibility 10.0 miles
Clouds Few 2600 ft
Scattered Clouds 3100 ft
Scattered Clouds 8500 ft
Dew Point 69 °F
Humidity 90%
Rainfall -999.00 in
Snow Depth Not available.
UV 0 out of 12
Pollen Not available.
Air Quality Not available.
Flu Activity Not available.
METAR TJSJ 190156Z 00000KT 10SM FEW026 SCT031 SCT085 24/22 A3001 RMK AO2 RAB11E24 SLP160 VCSH W P0003 T02440217

More Conditions Fewer Conditions

10-Day Weather Forecast

Almanac

Astronomy

Dec. 18, 2014 Rise Set
Actual Time
Civil Twilight
Nautical Twilight
Astronomical Twilight
Moon
Length of Visible Light
Length of Day
Tomorrow will be .
, % of the Moon is Illuminated

Today's Extremes

State Highs State Lows

Community

WunderPhotos

Upload Photos

1,779,030 photos uploaded!

WunderBlogs® & News

Nearby

Air Quality

  Air Quality AQ Index Pollutant
Not available.

Snow Depth

Station Depth Elevation

Earthquake Activity

City Distance Mag. Time & Date
Minimum magnitude displayed is 2.5.

Coastal Water Temperatures

Place Temperature

Nearby Weather Stations